sensor_id;sensor_type;location;lat;lon;timestamp;P1;durP1;ratioP1;P2;durP2;ratioP2
12774;SDS011;6451;42.630;23.382;2023-11-18T00:01:13;1.20;;;1.10;;
12774;SDS011;6451;42.630;23.382;2023-11-18T00:03:42;1.37;;;1.20;;
12774;SDS011;6451;42.630;23.382;2023-11-18T00:06:09;1.10;;;0.97;;
12774;SDS011;6451;42.630;23.382;2023-11-18T00:08:37;0.90;;;0.90;;
12774;SDS011;6451;42.630;23.382;2023-11-18T00:11:04;1.10;;;1.00;;
12774;SDS011;6451;42.630;23.382;2023-11-18T00:13:32;1.23;;;1.10;;
12774;SDS011;6451;42.630;23.382;2023-11-18T00:15:58;1.00;;;0.80;;
12774;SDS011;6451;42.630;23.382;2023-11-18T00:18:25;1.37;;;1.10;;
12774;SDS011;6451;42.630;23.382;2023-11-18T00:20:54;1.10;;;1.00;;
12774;SDS011;6451;42.630;23.382;2023-11-18T00:23:22;0.93;;;0.90;;
12774;SDS011;6451;42.630;23.382;2023-11-18T00:25:49;0.90;;;0.90;;
12774;SDS011;6451;42.630;23.382;2023-11-18T00:28:17;0.90;;;0.90;;
12774;SDS011;6451;42.630;23.382;2023-11-18T00:30:45;1.13;;;1.03;;
12774;SDS011;6451;42.630;23.382;2023-11-18T00:33:12;1.00;;;0.90;;
12774;SDS011;6451;42.630;23.382;2023-11-18T00:35:39;1.10;;;1.00;;
12774;SDS011;6451;42.630;23.382;2023-11-18T00:38:07;1.00;;;0.93;;
12774;SDS011;6451;42.630;23.382;2023-11-18T00:40:36;1.20;;;1.10;;
12774;SDS011;6451;42.630;23.382;2023-11-18T00:43:05;0.90;;;0.90;;
12774;SDS011;6451;42.630;23.382;2023-11-18T00:45:33;0.90;;;0.90;;
12774;SDS011;6451;42.630;23.382;2023-11-18T00:48:01;0.80;;;0.80;;
12774;SDS011;6451;42.630;23.382;2023-11-18T00:50:30;1.17;;;0.93;;
12774;SDS011;6451;42.630;23.382;2023-11-18T00:53:01;1.10;;;1.00;;
12774;SDS011;6451;42.630;23.382;2023-11-18T00:55:29;1.10;;;1.00;;
12774;SDS011;6451;42.630;23.382;2023-11-18T00:57:57;0.90;;;0.90;;
12774;SDS011;6451;42.630;23.382;2023-11-18T01:00:24;1.10;;;1.00;;
12774;SDS011;6451;42.630;23.382;2023-11-18T01:02:53;1.60;;;1.23;;
12774;SDS011;6451;42.630;23.382;2023-11-18T01:05:21;1.33;;;1.10;;
12774;SDS011;6451;42.630;23.382;2023-11-18T01:07:49;1.40;;;1.10;;
12774;SDS011;6451;42.630;23.382;2023-11-18T01:10:16;1.20;;;1.10;;
12774;SDS011;6451;42.630;23.382;2023-11-18T01:12:46;2.80;;;1.20;;
12774;SDS011;6451;42.630;23.382;2023-11-18T01:15:13;1.30;;;1.20;;
12774;SDS011;6451;42.630;23.382;2023-11-18T01:17:40;1.20;;;1.10;;
12774;SDS011;6451;42.630;23.382;2023-11-18T01:20:08;1.20;;;1.10;;
12774;SDS011;6451;42.630;23.382;2023-11-18T01:22:39;1.60;;;1.40;;
12774;SDS011;6451;42.630;23.382;2023-11-18T01:25:08;2.10;;;1.30;;
12774;SDS011;6451;42.630;23.382;2023-11-18T01:27:36;1.50;;;1.40;;
12774;SDS011;6451;42.630;23.382;2023-11-18T01:30:11;1.50;;;1.40;;
12774;SDS011;6451;42.630;23.382;2023-11-18T01:32:38;1.43;;;1.33;;
12774;SDS011;6451;42.630;23.382;2023-11-18T01:35:06;1.43;;;1.33;;
12774;SDS011;6451;42.630;23.382;2023-11-18T01:37:33;1.50;;;1.40;;
12774;SDS011;6451;42.630;23.382;2023-11-18T01:40:01;1.50;;;1.40;;
12774;SDS011;6451;42.630;23.382;2023-11-18T01:42:32;1.50;;;1.40;;
12774;SDS011;6451;42.630;23.382;2023-11-18T01:45:01;1.73;;;1.63;;
12774;SDS011;6451;42.630;23.382;2023-11-18T01:47:31;1.83;;;1.73;;
12774;SDS011;6451;42.630;23.382;2023-11-18T01:49:58;1.83;;;1.73;;
12774;SDS011;6451;42.630;23.382;2023-11-18T01:52:26;2.27;;;1.93;;
12774;SDS011;6451;42.630;23.382;2023-11-18T01:54:55;1.90;;;1.80;;
12774;SDS011;6451;42.630;23.382;2023-11-18T01:57:22;1.70;;;1.60;;
12774;SDS011;6451;42.630;23.382;2023-11-18T01:59:50;1.60;;;1.50;;
12774;SDS011;6451;42.630;23.382;2023-11-18T02:02:17;1.80;;;1.50;;
12774;SDS011;6451;42.630;23.382;2023-11-18T02:04:51;1.90;;;1.80;;
12774;SDS011;6451;42.630;23.382;2023-11-18T02:07:23;1.60;;;1.50;;
12774;SDS011;6451;42.630;23.382;2023-11-18T02:09:50;1.57;;;1.47;;
12774;SDS011;6451;42.630;23.382;2023-11-18T02:12:23;1.60;;;1.50;;
12774;SDS011;6451;42.630;23.382;2023-11-18T02:15:00;1.60;;;1.43;;
12774;SDS011;6451;42.630;23.382;2023-11-18T02:17:35;2.97;;;1.70;;
12774;SDS011;6451;42.630;23.382;2023-11-18T02:20:07;2.03;;;1.80;;
12774;SDS011;6451;42.630;23.382;2023-11-18T02:22:42;2.07;;;1.90;;
12774;SDS011;6451;42.630;23.382;2023-11-18T02:25:09;1.93;;;1.80;;
12774;SDS011;6451;42.630;23.382;2023-11-18T02:27:43;1.70;;;1.60;;
12774;SDS011;6451;42.630;23.382;2023-11-18T02:30:11;1.80;;;1.70;;
12774;SDS011;6451;42.630;23.382;2023-11-18T02:32:45;1.97;;;1.87;;
12774;SDS011;6451;42.630;23.382;2023-11-18T02:35:20;2.03;;;1.83;;
12774;SDS011;6451;42.630;23.382;2023-11-18T02:37:52;2.30;;;2.17;;
12774;SDS011;6451;42.630;23.382;2023-11-18T02:40:23;1.80;;;1.70;;
12774;SDS011;6451;42.630;23.382;2023-11-18T02:42:57;2.13;;;1.80;;
12774;SDS011;6451;42.630;23.382;2023-11-18T02:45:26;2.00;;;1.90;;
12774;SDS011;6451;42.630;23.382;2023-11-18T02:47:54;2.00;;;1.90;;
12774;SDS011;6451;42.630;23.382;2023-11-18T02:50:22;2.20;;;2.00;;
12774;SDS011;6451;42.630;23.382;2023-11-18T02:52:50;2.10;;;1.90;;
12774;SDS011;6451;42.630;23.382;2023-11-18T02:55:17;2.07;;;1.97;;
12774;SDS011;6451;42.630;23.382;2023-11-18T02:57:46;2.00;;;1.90;;
12774;SDS011;6451;42.630;23.382;2023-11-18T03:00:16;1.70;;;1.60;;
12774;SDS011;6451;42.630;23.382;2023-11-18T03:02:46;2.10;;;2.00;;
12774;SDS011;6451;42.630;23.382;2023-11-18T03:05:15;2.40;;;2.20;;
12774;SDS011;6451;42.630;23.382;2023-11-18T03:07:42;2.83;;;2.43;;
12774;SDS011;6451;42.630;23.382;2023-11-18T03:10:12;2.53;;;2.33;;
12774;SDS011;6451;42.630;23.382;2023-11-18T03:12:46;1.80;;;1.70;;
12774;SDS011;6451;42.630;23.382;2023-11-18T03:15:13;2.70;;;2.50;;
12774;SDS011;6451;42.630;23.382;2023-11-18T03:17:49;2.40;;;2.20;;
12774;SDS011;6451;42.630;23.382;2023-11-18T03:20:17;2.23;;;2.03;;
12774;SDS011;6451;42.630;23.382;2023-11-18T03:22:45;2.87;;;2.20;;
12774;SDS011;6451;42.630;23.382;2023-11-18T03:25:15;2.67;;;2.47;;
12774;SDS011;6451;42.630;23.382;2023-11-18T03:27:43;2.03;;;1.93;;
12774;SDS011;6451;42.630;23.382;2023-11-18T03:30:12;2.70;;;2.50;;
12774;SDS011;6451;42.630;23.382;2023-11-18T03:32:40;2.60;;;2.40;;
12774;SDS011;6451;42.630;23.382;2023-11-18T03:35:09;3.17;;;2.73;;
12774;SDS011;6451;42.630;23.382;2023-11-18T03:37:37;2.87;;;2.60;;
12774;SDS011;6451;42.630;23.382;2023-11-18T03:40:06;2.90;;;2.70;;
12774;SDS011;6451;42.630;23.382;2023-11-18T03:42:35;3.23;;;2.33;;
12774;SDS011;6451;42.630;23.382;2023-11-18T03:45:02;2.93;;;2.57;;
12774;SDS011;6451;42.630;23.382;2023-11-18T03:47:30;2.17;;;2.03;;
12774;SDS011;6451;42.630;23.382;2023-11-18T03:49:59;2.07;;;1.93;;
12774;SDS011;6451;42.630;23.382;2023-11-18T03:52:28;2.37;;;2.17;;
12774;SDS011;6451;42.630;23.382;2023-11-18T03:54:56;2.50;;;2.30;;
12774;SDS011;6451;42.630;23.382;2023-11-18T03:57:23;2.80;;;2.60;;
12774;SDS011;6451;42.630;23.382;2023-11-18T03:59:50;2.80;;;2.60;;
12774;SDS011;6451;42.630;23.382;2023-11-18T04:02:18;4.57;;;2.60;;
12774;SDS011;6451;42.630;23.382;2023-11-18T04:04:44;3.57;;;3.10;;
12774;SDS011;6451;42.630;23.382;2023-11-18T04:07:12;2.63;;;2.43;;
12774;SDS011;6451;42.630;23.382;2023-11-18T04:09:41;3.10;;;2.80;;
12774;SDS011;6451;42.630;23.382;2023-11-18T04:12:09;3.13;;;2.83;;
12774;SDS011;6451;42.630;23.382;2023-11-18T04:14:36;3.57;;;2.90;;
12774;SDS011;6451;42.630;23.382;2023-11-18T04:17:03;2.40;;;2.20;;
12774;SDS011;6451;42.630;23.382;2023-11-18T04:19:31;3.57;;;2.57;;
12774;SDS011;6451;42.630;23.382;2023-11-18T04:21:58;2.97;;;2.70;;
12774;SDS011;6451;42.630;23.382;2023-11-18T04:24:24;3.30;;;3.00;;
12774;SDS011;6451;42.630;23.382;2023-11-18T04:26:53;2.70;;;2.50;;
12774;SDS011;6451;42.630;23.382;2023-11-18T04:29:20;3.83;;;3.20;;
12774;SDS011;6451;42.630;23.382;2023-11-18T04:31:48;2.80;;;2.60;;
12774;SDS011;6451;42.630;23.382;2023-11-18T04:34:15;3.07;;;2.87;;
12774;SDS011;6451;42.630;23.382;2023-11-18T04:36:43;3.30;;;2.93;;
12774;SDS011;6451;42.630;23.382;2023-11-18T04:39:10;3.40;;;3.10;;
12774;SDS011;6451;42.630;23.382;2023-11-18T04:41:37;3.20;;;2.90;;
12774;SDS011;6451;42.630;23.382;2023-11-18T04:44:06;3.57;;;2.97;;
12774;SDS011;6451;42.630;23.382;2023-11-18T04:46:33;2.97;;;2.63;;
12774;SDS011;6451;42.630;23.382;2023-11-18T04:49:01;3.37;;;2.70;;
12774;SDS011;6451;42.630;23.382;2023-11-18T04:51:28;2.73;;;2.50;;
12774;SDS011;6451;42.630;23.382;2023-11-18T04:53:55;2.50;;;2.30;;
12774;SDS011;6451;42.630;23.382;2023-11-18T04:56:35;2.63;;;2.43;;
12774;SDS011;6451;42.630;23.382;2023-11-18T04:59:02;2.50;;;2.30;;
12774;SDS011;6451;42.630;23.382;2023-11-18T05:01:31;2.90;;;2.70;;
12774;SDS011;6451;42.630;23.382;2023-11-18T05:03:58;3.47;;;2.50;;
12774;SDS011;6451;42.630;23.382;2023-11-18T05:06:26;2.60;;;2.40;;
12774;SDS011;6451;42.630;23.382;2023-11-18T05:08:54;2.40;;;2.20;;
12774;SDS011;6451;42.630;23.382;2023-11-18T05:11:21;2.50;;;2.30;;
12774;SDS011;6451;42.630;23.382;2023-11-18T05:13:47;2.77;;;2.57;;
12774;SDS011;6451;42.630;23.382;2023-11-18T05:16:14;2.40;;;2.20;;
12774;SDS011;6451;42.630;23.382;2023-11-18T05:18:43;2.57;;;2.37;;
12774;SDS011;6451;42.630;23.382;2023-11-18T05:21:10;2.50;;;2.30;;
12774;SDS011;6451;42.630;23.382;2023-11-18T05:23:40;2.77;;;2.57;;
12774;SDS011;6451;42.630;23.382;2023-11-18T05:26:07;3.03;;;2.73;;
12774;SDS011;6451;42.630;23.382;2023-11-18T05:28:34;2.67;;;2.10;;
12774;SDS011;6451;42.630;23.382;2023-11-18T05:31:05;2.33;;;2.13;;
12774;SDS011;6451;42.630;23.382;2023-11-18T05:33:34;2.40;;;2.20;;
12774;SDS011;6451;42.630;23.382;2023-11-18T05:36:03;2.10;;;1.90;;
12774;SDS011;6451;42.630;23.382;2023-11-18T05:38:31;2.17;;;1.97;;
12774;SDS011;6451;42.630;23.382;2023-11-18T05:41:00;1.70;;;1.60;;
12774;SDS011;6451;42.630;23.382;2023-11-18T05:43:30;2.23;;;1.70;;
12774;SDS011;6451;42.630;23.382;2023-11-18T05:46:05;3.07;;;2.10;;
12774;SDS011;6451;42.630;23.382;2023-11-18T05:48:46;2.40;;;1.70;;
12774;SDS011;6451;42.630;23.382;2023-11-18T05:51:18;1.53;;;1.43;;
12774;SDS011;6451;42.630;23.382;2023-11-18T05:53:47;1.80;;;1.70;;
12774;SDS011;6451;42.630;23.382;2023-11-18T05:56:14;1.63;;;1.53;;
12774;SDS011;6451;42.630;23.382;2023-11-18T05:58:41;1.60;;;1.50;;
12774;SDS011;6451;42.630;23.382;2023-11-18T06:01:15;1.90;;;1.60;;
12774;SDS011;6451;42.630;23.382;2023-11-18T06:03:47;1.60;;;1.50;;
12774;SDS011;6451;42.630;23.382;2023-11-18T06:06:15;1.40;;;1.30;;
12774;SDS011;6451;42.630;23.382;2023-11-18T06:08:43;2.17;;;1.60;;
12774;SDS011;6451;42.630;23.382;2023-11-18T06:11:10;1.73;;;1.50;;
12774;SDS011;6451;42.630;23.382;2023-11-18T06:13:41;2.40;;;1.50;;
12774;SDS011;6451;42.630;23.382;2023-11-18T06:16:18;3.97;;;1.50;;
12774;SDS011;6451;42.630;23.382;2023-11-18T06:18:47;2.67;;;1.40;;
12774;SDS011;6451;42.630;23.382;2023-11-18T06:21:31;1.17;;;1.07;;
12774;SDS011;6451;42.630;23.382;2023-11-18T06:23:59;1.10;;;1.00;;
12774;SDS011;6451;42.630;23.382;2023-11-18T06:26:27;1.87;;;1.33;;
12774;SDS011;6451;42.630;23.382;2023-11-18T06:28:54;1.30;;;1.17;;
12774;SDS011;6451;42.630;23.382;2023-11-18T06:31:22;1.27;;;1.17;;
12774;SDS011;6451;42.630;23.382;2023-11-18T06:33:50;2.20;;;1.20;;
12774;SDS011;6451;42.630;23.382;2023-11-18T06:36:18;1.17;;;1.07;;
12774;SDS011;6451;42.630;23.382;2023-11-18T06:38:48;3.93;;;1.40;;
12774;SDS011;6451;42.630;23.382;2023-11-18T06:41:17;1.27;;;1.10;;
12774;SDS011;6451;42.630;23.382;2023-11-18T06:43:48;1.33;;;1.23;;
12774;SDS011;6451;42.630;23.382;2023-11-18T06:46:22;1.73;;;1.30;;
12774;SDS011;6451;42.630;23.382;2023-11-18T06:48:50;1.47;;;1.30;;
12774;SDS011;6451;42.630;23.382;2023-11-18T06:51:19;1.30;;;1.20;;
12774;SDS011;6451;42.630;23.382;2023-11-18T06:53:50;1.73;;;1.50;;
12774;SDS011;6451;42.630;23.382;2023-11-18T06:56:20;1.13;;;1.03;;
12774;SDS011;6451;42.630;23.382;2023-11-18T06:58:47;1.30;;;1.10;;
12774;SDS011;6451;42.630;23.382;2023-11-18T07:01:19;1.23;;;1.13;;
12774;SDS011;6451;42.630;23.382;2023-11-18T07:03:47;1.20;;;1.03;;
12774;SDS011;6451;42.630;23.382;2023-11-18T07:06:18;1.23;;;1.10;;
12774;SDS011;6451;42.630;23.382;2023-11-18T07:08:53;2.10;;;1.10;;
12774;SDS011;6451;42.630;23.382;2023-11-18T07:11:29;1.27;;;0.80;;
12774;SDS011;6451;42.630;23.382;2023-11-18T07:13:57;0.97;;;0.90;;
12774;SDS011;6451;42.630;23.382;2023-11-18T07:16:25;1.60;;;0.80;;
12774;SDS011;6451;42.630;23.382;2023-11-18T07:18:55;0.87;;;0.87;;
12774;SDS011;6451;42.630;23.382;2023-11-18T07:21:22;0.90;;;0.90;;
12774;SDS011;6451;42.630;23.382;2023-11-18T07:23:52;2.10;;;0.80;;
12774;SDS011;6451;42.630;23.382;2023-11-18T07:26:22;0.80;;;0.80;;
12774;SDS011;6451;42.630;23.382;2023-11-18T07:28:55;1.10;;;0.90;;
12774;SDS011;6451;42.630;23.382;2023-11-18T07:31:23;1.33;;;1.07;;
12774;SDS011;6451;42.630;23.382;2023-11-18T07:33:50;1.00;;;1.00;;
12774;SDS011;6451;42.630;23.382;2023-11-18T07:36:23;0.70;;;0.70;;
12774;SDS011;6451;42.630;23.382;2023-11-18T07:38:55;1.03;;;1.00;;
12774;SDS011;6451;42.630;23.382;2023-11-18T07:41:23;1.10;;;1.00;;
12774;SDS011;6451;42.630;23.382;2023-11-18T07:43:54;1.07;;;0.97;;
12774;SDS011;6451;42.630;23.382;2023-11-18T07:46:24;1.00;;;0.90;;
12774;SDS011;6451;42.630;23.382;2023-11-18T07:49:02;0.80;;;0.80;;
12774;SDS011;6451;42.630;23.382;2023-11-18T07:51:37;0.80;;;0.80;;
12774;SDS011;6451;42.630;23.382;2023-11-18T07:54:20;0.90;;;0.90;;
12774;SDS011;6451;42.630;23.382;2023-11-18T07:59:35;0.80;;;0.80;;
12774;SDS011;6451;42.630;23.382;2023-11-18T08:02:03;1.13;;;0.80;;
12774;SDS011;6451;42.630;23.382;2023-11-18T08:04:34;0.93;;;0.93;;
12774;SDS011;6451;42.630;23.382;2023-11-18T08:07:17;2.63;;;1.00;;
12774;SDS011;6451;42.630;23.382;2023-11-18T08:09:51;0.77;;;0.77;;
12774;SDS011;6451;42.630;23.382;2023-11-18T08:12:23;1.00;;;0.90;;
12774;SDS011;6451;42.630;23.382;2023-11-18T08:17:29;1.10;;;1.00;;
12774;SDS011;6451;42.630;23.382;2023-11-18T08:19:56;1.73;;;1.00;;
12774;SDS011;6451;42.630;23.382;2023-11-18T08:22:25;1.10;;;1.00;;
12774;SDS011;6451;42.630;23.382;2023-11-18T08:24:56;0.90;;;0.90;;
12774;SDS011;6451;42.630;23.382;2023-11-18T08:27:36;1.10;;;1.00;;
12774;SDS011;6451;42.630;23.382;2023-11-18T08:30:09;1.20;;;1.10;;
12774;SDS011;6451;42.630;23.382;2023-11-18T08:32:40;1.07;;;0.97;;
12774;SDS011;6451;42.630;23.382;2023-11-18T08:35:11;1.00;;;0.90;;
12774;SDS011;6451;42.630;23.382;2023-11-18T08:37:39;1.73;;;1.27;;
12774;SDS011;6451;42.630;23.382;2023-11-18T08:40:12;1.87;;;0.80;;
12774;SDS011;6451;42.630;23.382;2023-11-18T08:42:42;0.97;;;0.80;;
12774;SDS011;6451;42.630;23.382;2023-11-18T08:45:14;1.27;;;1.10;;
12774;SDS011;6451;42.630;23.382;2023-11-18T08:47:42;1.17;;;1.07;;
12774;SDS011;6451;42.630;23.382;2023-11-18T08:50:12;1.93;;;1.10;;
12774;SDS011;6451;42.630;23.382;2023-11-18T08:52:43;1.20;;;1.10;;
12774;SDS011;6451;42.630;23.382;2023-11-18T08:55:13;2.70;;;1.00;;
12774;SDS011;6451;42.630;23.382;2023-11-18T08:57:45;1.10;;;1.00;;
12774;SDS011;6451;42.630;23.382;2023-11-18T09:00:23;1.13;;;1.00;;
12774;SDS011;6451;42.630;23.382;2023-11-18T09:03:12;0.80;;;0.80;;
12774;SDS011;6451;42.630;23.382;2023-11-18T09:05:43;1.17;;;1.00;;
12774;SDS011;6451;42.630;23.382;2023-11-18T09:08:22;1.13;;;1.00;;
12774;SDS011;6451;42.630;23.382;2023-11-18T09:10:56;1.03;;;1.00;;
12774;SDS011;6451;42.630;23.382;2023-11-18T09:13:24;1.33;;;1.10;;
12774;SDS011;6451;42.630;23.382;2023-11-18T09:15:55;1.47;;;1.00;;
12774;SDS011;6451;42.630;23.382;2023-11-18T09:18:22;1.73;;;1.20;;
12774;SDS011;6451;42.630;23.382;2023-11-18T09:20:51;1.10;;;1.00;;
12774;SDS011;6451;42.630;23.382;2023-11-18T09:23:20;1.10;;;1.00;;
12774;SDS011;6451;42.630;23.382;2023-11-18T09:25:50;1.10;;;1.00;;
12774;SDS011;6451;42.630;23.382;2023-11-18T09:28:20;1.87;;;1.10;;
12774;SDS011;6451;42.630;23.382;2023-11-18T09:30:48;1.20;;;1.10;;
12774;SDS011;6451;42.630;23.382;2023-11-18T09:33:20;1.10;;;1.00;;
12774;SDS011;6451;42.630;23.382;2023-11-18T09:35:58;0.97;;;0.90;;
12774;SDS011;6451;42.630;23.382;2023-11-18T09:38:26;1.00;;;1.00;;
12774;SDS011;6451;42.630;23.382;2023-11-18T09:40:55;1.47;;;1.10;;
12774;SDS011;6451;42.630;23.382;2023-11-18T09:43:28;1.20;;;1.10;;
12774;SDS011;6451;42.630;23.382;2023-11-18T09:46:03;1.00;;;0.90;;
12774;SDS011;6451;42.630;23.382;2023-11-18T09:48:38;0.90;;;0.90;;
12774;SDS011;6451;42.630;23.382;2023-11-18T09:51:14;1.00;;;0.90;;
12774;SDS011;6451;42.630;23.382;2023-11-18T09:53:44;1.00;;;0.90;;
12774;SDS011;6451;42.630;23.382;2023-11-18T09:56:13;1.00;;;0.90;;
12774;SDS011;6451;42.630;23.382;2023-11-18T09:58:57;1.37;;;1.00;;
12774;SDS011;6451;42.630;23.382;2023-11-18T10:01:34;0.87;;;0.87;;
12774;SDS011;6451;42.630;23.382;2023-11-18T10:04:05;0.90;;;0.90;;
12774;SDS011;6451;42.630;23.382;2023-11-18T10:09:06;1.33;;;1.23;;
12774;SDS011;6451;42.630;23.382;2023-11-18T10:11:42;1.17;;;1.07;;
12774;SDS011;6451;42.630;23.382;2023-11-18T10:14:13;1.07;;;0.97;;
12774;SDS011;6451;42.630;23.382;2023-11-18T10:16:42;1.20;;;1.00;;
12774;SDS011;6451;42.630;23.382;2023-11-18T10:19:12;1.37;;;1.27;;
12774;SDS011;6451;42.630;23.382;2023-11-18T10:21:39;1.40;;;1.23;;
12774;SDS011;6451;42.630;23.382;2023-11-18T10:24:07;1.10;;;1.00;;
12774;SDS011;6451;42.630;23.382;2023-11-18T10:26:40;2.10;;;1.37;;
12774;SDS011;6451;42.630;23.382;2023-11-18T10:29:10;1.20;;;1.10;;
12774;SDS011;6451;42.630;23.382;2023-11-18T10:31:40;1.93;;;1.20;;
12774;SDS011;6451;42.630;23.382;2023-11-18T10:34:12;1.57;;;1.20;;
12774;SDS011;6451;42.630;23.382;2023-11-18T10:36:42;1.20;;;1.10;;
12774;SDS011;6451;42.630;23.382;2023-11-18T10:39:28;1.00;;;0.90;;
12774;SDS011;6451;42.630;23.382;2023-11-18T10:42:00;1.00;;;0.90;;
12774;SDS011;6451;42.630;23.382;2023-11-18T10:44:27;1.20;;;1.10;;
12774;SDS011;6451;42.630;23.382;2023-11-18T10:46:56;1.37;;;1.00;;
12774;SDS011;6451;42.630;23.382;2023-11-18T10:49:24;1.27;;;1.17;;
12774;SDS011;6451;42.630;23.382;2023-11-18T10:51:51;1.20;;;1.10;;
12774;SDS011;6451;42.630;23.382;2023-11-18T10:54:18;1.30;;;1.20;;
12774;SDS011;6451;42.630;23.382;2023-11-18T10:56:46;1.30;;;1.20;;
12774;SDS011;6451;42.630;23.382;2023-11-18T10:59:15;1.30;;;1.10;;
12774;SDS011;6451;42.630;23.382;2023-11-18T11:01:44;1.37;;;1.27;;
12774;SDS011;6451;42.630;23.382;2023-11-18T11:04:15;1.87;;;1.40;;
12774;SDS011;6451;42.630;23.382;2023-11-18T11:06:46;1.60;;;1.50;;
12774;SDS011;6451;42.630;23.382;2023-11-18T11:09:18;1.20;;;1.10;;
12774;SDS011;6451;42.630;23.382;2023-11-18T11:11:52;1.60;;;1.23;;
12774;SDS011;6451;42.630;23.382;2023-11-18T11:14:23;2.37;;;1.10;;
12774;SDS011;6451;42.630;23.382;2023-11-18T11:17:00;2.03;;;1.40;;
12774;SDS011;6451;42.630;23.382;2023-11-18T11:19:39;1.50;;;1.20;;
12774;SDS011;6451;42.630;23.382;2023-11-18T11:22:22;1.10;;;1.00;;
12774;SDS011;6451;42.630;23.382;2023-11-18T11:24:58;1.27;;;1.00;;
12774;SDS011;6451;42.630;23.382;2023-11-18T11:27:38;1.70;;;1.00;;
12774;SDS011;6451;42.630;23.382;2023-11-18T11:30:20;1.80;;;1.20;;
12774;SDS011;6451;42.630;23.382;2023-11-18T11:32:50;0.97;;;0.97;;
12774;SDS011;6451;42.630;23.382;2023-11-18T11:35:22;1.50;;;1.20;;
12774;SDS011;6451;42.630;23.382;2023-11-18T11:37:50;2.43;;;1.20;;
12774;SDS011;6451;42.630;23.382;2023-11-18T11:40:29;3.93;;;1.30;;
12774;SDS011;6451;42.630;23.382;2023-11-18T11:42:57;4.63;;;0.97;;
12774;SDS011;6451;42.630;23.382;2023-11-18T11:45:32;1.20;;;1.10;;
12774;SDS011;6451;42.630;23.382;2023-11-18T11:48:01;1.50;;;1.00;;
12774;SDS011;6451;42.630;23.382;2023-11-18T11:53:42;1.60;;;1.40;;
12774;SDS011;6451;42.630;23.382;2023-11-18T11:56:12;1.47;;;1.30;;
12774;SDS011;6451;42.630;23.382;2023-11-18T11:58:45;1.50;;;1.13;;
12774;SDS011;6451;42.630;23.382;2023-11-18T12:01:21;1.10;;;1.00;;
12774;SDS011;6451;42.630;23.382;2023-11-18T12:03:56;1.20;;;1.10;;
12774;SDS011;6451;42.630;23.382;2023-11-18T12:06:25;1.50;;;1.40;;
12774;SDS011;6451;42.630;23.382;2023-11-18T12:08:54;2.33;;;1.40;;
12774;SDS011;6451;42.630;23.382;2023-11-18T12:11:23;3.27;;;1.53;;
12774;SDS011;6451;42.630;23.382;2023-11-18T12:13:59;1.70;;;1.50;;
12774;SDS011;6451;42.630;23.382;2023-11-18T12:19:40;3.00;;;1.40;;
12774;SDS011;6451;42.630;23.382;2023-11-18T12:22:15;2.40;;;1.30;;
12774;SDS011;6451;42.630;23.382;2023-11-18T12:28:11;2.90;;;1.50;;
12774;SDS011;6451;42.630;23.382;2023-11-18T12:30:42;1.40;;;1.30;;
12774;SDS011;6451;42.630;23.382;2023-11-18T12:33:21;1.40;;;1.30;;
12774;SDS011;6451;42.630;23.382;2023-11-18T12:39:19;1.53;;;1.30;;
12774;SDS011;6451;42.630;23.382;2023-11-18T12:42:02;1.60;;;1.50;;
12774;SDS011;6451;42.630;23.382;2023-11-18T12:44:37;2.20;;;1.23;;
12774;SDS011;6451;42.630;23.382;2023-11-18T12:47:17;1.40;;;1.30;;
12774;SDS011;6451;42.630;23.382;2023-11-18T12:49:47;1.40;;;1.30;;
12774;SDS011;6451;42.630;23.382;2023-11-18T12:52:19;2.60;;;1.40;;
12774;SDS011;6451;42.630;23.382;2023-11-18T12:54:49;1.73;;;1.63;;
12774;SDS011;6451;42.630;23.382;2023-11-18T12:57:17;1.60;;;1.50;;
12774;SDS011;6451;42.630;23.382;2023-11-18T12:59:48;2.03;;;1.33;;
12774;SDS011;6451;42.630;23.382;2023-11-18T13:02:15;1.50;;;1.40;;
12774;SDS011;6451;42.630;23.382;2023-11-18T13:04:45;3.10;;;1.83;;
12774;SDS011;6451;42.630;23.382;2023-11-18T13:07:14;1.60;;;1.40;;
12774;SDS011;6451;42.630;23.382;2023-11-18T13:09:42;1.93;;;1.73;;
12774;SDS011;6451;42.630;23.382;2023-11-18T13:12:12;1.97;;;1.37;;
12774;SDS011;6451;42.630;23.382;2023-11-18T13:14:42;1.70;;;1.60;;
12774;SDS011;6451;42.630;23.382;2023-11-18T13:17:11;2.07;;;1.87;;
12774;SDS011;6451;42.630;23.382;2023-11-18T13:19:43;2.13;;;1.80;;
12774;SDS011;6451;42.630;23.382;2023-11-18T13:22:13;1.93;;;1.60;;
12774;SDS011;6451;42.630;23.382;2023-11-18T13:24:44;2.20;;;2.00;;
12774;SDS011;6451;42.630;23.382;2023-11-18T13:27:14;2.03;;;1.73;;
12774;SDS011;6451;42.630;23.382;2023-11-18T13:29:43;2.23;;;1.60;;
12774;SDS011;6451;42.630;23.382;2023-11-18T13:32:14;2.17;;;1.97;;
12774;SDS011;6451;42.630;23.382;2023-11-18T13:34:41;2.37;;;2.03;;
12774;SDS011;6451;42.630;23.382;2023-11-18T13:37:09;2.20;;;2.00;;
12774;SDS011;6451;42.630;23.382;2023-11-18T13:39:39;1.67;;;1.57;;
12774;SDS011;6451;42.630;23.382;2023-11-18T13:42:20;2.30;;;1.80;;
12774;SDS011;6451;42.630;23.382;2023-11-18T13:44:50;2.40;;;2.20;;
12774;SDS011;6451;42.630;23.382;2023-11-18T13:47:18;2.30;;;1.73;;
12774;SDS011;6451;42.630;23.382;2023-11-18T13:49:45;3.10;;;1.90;;
12774;SDS011;6451;42.630;23.382;2023-11-18T13:52:17;2.03;;;1.83;;
12774;SDS011;6451;42.630;23.382;2023-11-18T13:54:47;2.00;;;1.80;;
12774;SDS011;6451;42.630;23.382;2023-11-18T13:57:22;2.90;;;1.73;;
12774;SDS011;6451;42.630;23.382;2023-11-18T13:59:49;2.60;;;2.17;;
12774;SDS011;6451;42.630;23.382;2023-11-18T14:02:17;2.57;;;1.93;;
12774;SDS011;6451;42.630;23.382;2023-11-18T14:04:45;2.10;;;1.90;;
12774;SDS011;6451;42.630;23.382;2023-11-18T14:07:14;3.23;;;2.00;;
12774;SDS011;6451;42.630;23.382;2023-11-18T14:09:42;2.37;;;2.00;;
12774;SDS011;6451;42.630;23.382;2023-11-18T14:12:11;2.63;;;2.30;;
12774;SDS011;6451;42.630;23.382;2023-11-18T14:14:40;6.17;;;2.37;;
12774;SDS011;6451;42.630;23.382;2023-11-18T14:17:09;3.63;;;2.30;;
12774;SDS011;6451;42.630;23.382;2023-11-18T14:19:42;2.20;;;2.00;;
12774;SDS011;6451;42.630;23.382;2023-11-18T14:22:12;4.70;;;2.00;;
12774;SDS011;6451;42.630;23.382;2023-11-18T14:24:42;2.30;;;2.10;;
12774;SDS011;6451;42.630;23.382;2023-11-18T14:27:15;3.23;;;2.90;;
12774;SDS011;6451;42.630;23.382;2023-11-18T14:29:46;3.03;;;2.67;;
12774;SDS011;6451;42.630;23.382;2023-11-18T14:32:14;2.60;;;2.20;;
12774;SDS011;6451;42.630;23.382;2023-11-18T14:34:41;3.07;;;2.63;;
12774;SDS011;6451;42.630;23.382;2023-11-18T14:37:08;2.53;;;2.23;;
12774;SDS011;6451;42.630;23.382;2023-11-18T14:39:36;4.60;;;2.87;;
12774;SDS011;6451;42.630;23.382;2023-11-18T14:42:03;3.40;;;2.60;;
12774;SDS011;6451;42.630;23.382;2023-11-18T14:44:31;2.90;;;2.60;;
12774;SDS011;6451;42.630;23.382;2023-11-18T14:47:01;3.70;;;2.90;;
12774;SDS011;6451;42.630;23.382;2023-11-18T14:49:29;2.70;;;2.40;;
12774;SDS011;6451;42.630;23.382;2023-11-18T14:51:59;2.93;;;2.60;;
12774;SDS011;6451;42.630;23.382;2023-11-18T14:54:26;2.83;;;2.50;;
12774;SDS011;6451;42.630;23.382;2023-11-18T14:56:55;3.23;;;2.90;;
12774;SDS011;6451;42.630;23.382;2023-11-18T14:59:22;2.40;;;2.20;;
12774;SDS011;6451;42.630;23.382;2023-11-18T15:01:49;3.30;;;2.70;;
12774;SDS011;6451;42.630;23.382;2023-11-18T15:04:18;3.20;;;2.90;;
12774;SDS011;6451;42.630;23.382;2023-11-18T15:06:47;2.73;;;2.30;;
12774;SDS011;6451;42.630;23.382;2023-11-18T15:09:18;4.70;;;2.80;;
12774;SDS011;6451;42.630;23.382;2023-11-18T15:11:49;3.40;;;2.60;;
12774;SDS011;6451;42.630;23.382;2023-11-18T15:14:18;3.17;;;2.87;;
12774;SDS011;6451;42.630;23.382;2023-11-18T15:16:45;3.67;;;2.80;;
12774;SDS011;6451;42.630;23.382;2023-11-18T15:19:16;3.53;;;2.90;;
12774;SDS011;6451;42.630;23.382;2023-11-18T15:21:52;3.07;;;2.70;;
12774;SDS011;6451;42.630;23.382;2023-11-18T15:24:21;3.40;;;3.00;;
12774;SDS011;6451;42.630;23.382;2023-11-18T15:26:49;2.90;;;2.53;;